Maratha Promise — V7YE5 — position and weather

sailwx.info

Track history (hours):
 
Tides and Currents Weather Stations Pressure Air Temp Water Temp Dewpoint Dewpoint Depression Visibility Wind Speed Wind Dir Waves Ship Positions

Maratha Promise

Last reported at 2014-Jul-08 01:15 UTC. Time now 2014-Jul-23 21:56 UTC.
Position S 26°54' E 154°06'.
Warning: this ship's position is 15 days out of date.

Length 178 m; draft 10.9 m.

Type: Cargo ship. MMSI: 538004641.

Date/timePositionNaut miles runAvg speedWind from/ knotsBaromVisibWave heightAir tempDewpointWater temp
2014-Jul-08 01:15S 26°54' E 154°06'912.1
2014-Jul-08 00:32S 27°02' E 154°08'1211.7
2014-Jul-07 23:32S 27°14' E 154°10'1111.5
2014-Jul-07 22:33S 27°25' E 154°11'1211.5
2014-Jul-07 21:33S 27°37' E 154°11'30710.6
2014-Jul-06 16:33S 32°35' E 152°49'1110.9
2014-Jul-06 15:33S 32°45' E 152°44'1110.6
2014-Jul-06 14:33S 32°55' E 152°40'1010.5
2014-Jul-06 13:33S 33°05' E 152°34'47110.9
2014-Jul-04 18:24S 39°30' E 146°58'8 8.9
2014-Jul-04 17:32S 39°38' E 146°58'8 8.3
2014-Jul-04 16:33S 39°46' E 146°59'8 7.9
2014-Jul-04 15:31S 39°54' E 146°58'51 8.4
2014-Jul-04 09:27S 40°44' E 146°48'8 8.5
2014-Jul-04 08:33S 40°52' E 146°45'8 8.2
2014-Jul-04 07:33S 40°60' E 146°45'8 8.1
2014-Jul-04 06:33S 41°07' E 146°49'2 2.2
2014-Jul-04 05:31S 41°08' E 146°52'0 0.0
2014-Jul-04 04:32S 41°08' E 146°52'0 0.0
2014-Jul-04 03:23S 41°08' E 146°52'0 0.0
2014-Jul-04 02:05S 41°08' E 146°52'0 0.0
2014-Jul-03 23:26S 41°08' E 146°52'0 0.0
2014-Jul-03 22:29S 41°08' E 146°52'0 0.0
2014-Jul-03 21:29S 41°08' E 146°52'0 0.0
2014-Jul-03 20:29S 41°08' E 146°52'0 0.0
2014-Jul-03 19:14S 41°08' E 146°52'0 0.0
2014-Jul-03 18:26S 41°08' E 146°52'0 0.0
2014-Jul-03 16:32S 41°08' E 146°52'0 0.0
2014-Jul-03 15:29S 41°08' E 146°52'0 0.0
2014-Jul-03 14:20S 41°08' E 146°52'0 0.0
2014-Jul-03 13:23S 41°08' E 146°52'0 0.0
2014-Jul-03 12:23S 41°08' E 146°52'0 0.0
2014-Jul-03 11:23S 41°08' E 146°52'0 0.0
2014-Jul-03 10:26S 41°08' E 146°52'0 0.0
2014-Jul-03 09:26S 41°08' E 146°52'0 0.0
2014-Jul-03 07:29S 41°08' E 146°52'0 0.0
2014-Jul-03 06:29S 41°08' E 146°52'0 0.0
2014-Jul-03 05:26S 41°08' E 146°52'0 0.0
2014-Jul-03 04:32S 41°08' E 146°52'0 0.0
2014-Jul-03 03:32S 41°08' E 146°52'0 0.0
2014-Jul-03 02:32S 41°08' E 146°52'0 0.0
2014-Jul-03 01:29S 41°08' E 146°52'0 0.0
2014-Jul-03 00:20S 41°08' E 146°52'0 0.0
2014-Jul-02 23:08S 41°08' E 146°52'0 0.0
2014-Jul-02 22:32S 41°08' E 146°52'0 0.0
2014-Jul-02 21:08S 41°08' E 146°52'0 0.0
2014-Jul-02 19:26S 41°08' E 146°52'0 0.0
2014-Jul-02 18:23S 41°08' E 146°52'0 0.0
2014-Jul-02 17:14S 41°08' E 146°52'0 0.0
2014-Jul-02 15:29S 41°08' E 146°52'0 0.0
2014-Jul-02 14:17S 41°08' E 146°52'0 0.0
2014-Jul-02 13:29S 41°08' E 146°52'0 0.0
2014-Jul-02 12:32S 41°08' E 146°52'0 0.0
2014-Jul-02 11:20S 41°08' E 146°52'0 0.0
2014-Jul-02 10:32S 41°08' E 146°52'0 0.0
2014-Jul-02 09:32S 41°08' E 146°52'0 0.0
2014-Jul-02 08:20S 41°08' E 146°52'0 0.0
2014-Jul-02 07:23S 41°08' E 146°52'0 0.0
2014-Jul-02 06:23S 41°08' E 146°52'0 0.0
2014-Jul-02 05:08S 41°08' E 146°52'0 0.0
2014-Jul-02 04:11S 41°08' E 146°52'0 0.0
2014-Jul-02 03:23S 41°08' E 146°52'0 0.0
2014-Jul-02 02:14S 41°08' E 146°52'0 0.0
2014-Jul-02 01:29S 41°08' E 146°52'0 0.0
2014-Jul-02 00:32S 41°08' E 146°52'0 0.0
2014-Jul-01 23:32S 41°08' E 146°52'0 0.0
2014-Jul-01 22:32S 41°08' E 146°52'0 0.0
2014-Jul-01 21:32S 41°08' E 146°52'0 0.0
2014-Jul-01 20:05S 41°08' E 146°52'0 0.0
2014-Jul-01 19:20S 41°08' E 146°52'0 0.0
2014-Jul-01 18:20S 41°08' E 146°52'0 0.0
2014-Jul-01 17:23S 41°08' E 146°52'0 0.0
2014-Jul-01 16:08S 41°08' E 146°52'0 0.0
2014-Jul-01 14:26S 41°08' E 146°52'0 0.4
2014-Jul-01 13:14S 41°08' E 146°52'0 0.3
2014-Jul-01 12:26S 41°08' E 146°53'0 0.1
2014-Jul-01 11:14S 41°08' E 146°53'0 0.0
2014-Jul-01 10:29S 41°08' E 146°53'0 0.0
2014-Jul-01 09:32S 41°08' E 146°53'0 0.0
2014-Jul-01 07:14S 41°08' E 146°53'0 0.1
2014-Jul-01 06:32S 41°08' E 146°53'0 0.1
2014-Jul-01 05:20S 41°08' E 146°53'0 0.1
2014-Jul-01 04:32S 41°08' E 146°53'0 0.0
2014-Jul-01 03:20S 41°08' E 146°53'0 0.0
2014-Jul-01 02:23S 41°08' E 146°53'0 0.0
2014-Jul-01 01:26S 41°08' E 146°53'0 0.0
2014-Jul-01 00:11S 41°08' E 146°53'0 0.3
2014-Jun-30 23:26S 41°08' E 146°53'0 0.0
2014-Jun-30 22:26S 41°08' E 146°53'0 0.1
2014-Jun-30 21:29S 41°08' E 146°53'0 0.0
2014-Jun-30 20:29S 41°08' E 146°53'0 0.0
2014-Jun-30 19:29S 41°08' E 146°53'0 0.0
2014-Jun-30 18:32S 41°08' E 146°53'0 0.1
2014-Jun-30 17:14S 41°08' E 146°53'0 0.1
2014-Jun-30 15:20S 41°08' E 146°53'0 0.0
2014-Jun-30 14:32S 41°08' E 146°53'0 0.1
2014-Jun-30 13:23S 41°08' E 146°53'0 0.0
2014-Jun-30 12:23S 41°08' E 146°53'0 0.1
2014-Jun-30 10:20S 41°08' E 146°53'0 0.0
2014-Jun-30 09:23S 41°08' E 146°53'0 0.0
2014-Jun-30 08:29S 41°08' E 146°53'0 0.1
2014-Jun-30 05:29S 41°08' E 146°53'0 0.0
2014-Jun-30 04:26S 41°08' E 146°53'0 0.0
2014-Jun-30 03:32S 41°08' E 146°53'0 0.0
2014-Jun-30 02:29S 41°08' E 146°53'4 4.6
2014-Jun-30 01:33S 41°06' E 146°48'7 6.7
2014-Jun-30 00:33S 40°59' E 146°46'0 0.1
2014-Jun-29 23:33S 40°59' E 146°46'0 0.0
2014-Jun-29 21:30S 40°59' E 146°46'0 0.0
2014-Jun-29 20:33S 40°59' E 146°46'0 0.0
2014-Jun-29 19:33S 40°59' E 146°46'0 0.0
2014-Jun-29 18:21S 40°59' E 146°46'0 0.0
2014-Jun-29 17:25S 40°59' E 146°46'0 0.0
2014-Jun-29 16:21S 40°59' E 146°46'0 0.0
2014-Jun-29 15:12S 40°59' E 146°46'0 0.0
2014-Jun-29 14:24S 40°59' E 146°46'0 0.0
2014-Jun-29 13:12S 40°59' E 146°46'0 0.0
2014-Jun-29 12:15S 40°59' E 146°46'0 0.0
2014-Jun-29 11:28S 40°59' E 146°46'0 0.0
2014-Jun-29 10:27S 40°59' E 146°46'0 0.1
2014-Jun-29 09:33S 40°59' E 146°46'0 0.0
2014-Jun-29 07:31S 40°59' E 146°46'0 0.0
2014-Jun-29 06:32S 40°59' E 146°46'0 0.1
2014-Jun-29 05:32S 40°59' E 146°46'0 0.0
2014-Jun-29 04:33S 40°59' E 146°46'0 0.1
2014-Jun-29 03:33S 40°59' E 146°46'0 0.0
2014-Jun-29 02:31S 40°59' E 146°46'0 0.0
2014-Jun-29 01:32S 40°59' E 146°46'0 0.0
2014-Jun-29 00:33S 40°59' E 146°46'0 0.0
2014-Jun-28 23:33S 40°59' E 146°46'0 0.2
2014-Jun-28 22:33S 40°59' E 146°46'5 5.2
2014-Jun-28 21:31S 40°55' E 146°41'7 1.2
2014-Jun-28 15:33S 40°48' E 146°38'3 2.7
2014-Jun-28 14:33S 40°50' E 146°41'2 2.5
2014-Jun-28 13:33S 40°51' E 146°44'2 2.1
2014-Jun-28 12:30S 40°53' E 146°46'2 2.2
2014-Jun-28 11:33S 40°54' E 146°49'2 2.4
2014-Jun-28 10:33S 40°55' E 146°51'2 1.7
2014-Jun-28 09:32S 40°56' E 146°53'2 1.6
2014-Jun-28 08:32S 40°55' E 146°52'6 5.8
2014-Jun-28 07:32S 40°52' E 146°45'3 2.4
2014-Jun-28 06:27S 40°51' E 146°42'1 0.8
2014-Jun-28 05:26S 40°52' E 146°42'1 1.2
2014-Jun-28 04:32S 40°53' E 146°43'1 1.0
2014-Jun-28 03:31S 40°54' E 146°43'2 1.7
2014-Jun-28 02:31S 40°55' E 146°44'1 1.5
2014-Jun-28 01:33S 40°56' E 146°46'  
Track history (hours):
 
Tides and Currents Weather Stations Pressure Air Temp Water Temp Dewpoint Dewpoint Depression Visibility Wind Speed Wind Dir Waves Ship Positions

Maratha Promise

Last reported at 2014-Jul-08 01:15 UTC. Time now 2014-Jul-23 21:56 UTC.
Position S 26°54' E 154°06'.
Warning: this ship's position is 15 days out of date.

Length 178 m; draft 10.9 m.

Type: Cargo ship. MMSI: 538004641.

Date/timePositionNaut miles runAvg speedWind from/ knotsBaromVisibWave heightAir tempDewpointWater temp
2014-Jul-08 01:15S 26°54' E 154°06'912.1
2014-Jul-08 00:32S 27°02' E 154°08'1211.7
2014-Jul-07 23:32S 27°14' E 154°10'1111.5
2014-Jul-07 22:33S 27°25' E 154°11'1211.5
2014-Jul-07 21:33S 27°37' E 154°11'30710.6
2014-Jul-06 16:33S 32°35' E 152°49'1110.9
2014-Jul-06 15:33S 32°45' E 152°44'1110.6
2014-Jul-06 14:33S 32°55' E 152°40'1010.5
2014-Jul-06 13:33S 33°05' E 152°34'47110.9
2014-Jul-04 18:24S 39°30' E 146°58'8 8.9
2014-Jul-04 17:32S 39°38' E 146°58'8 8.3
2014-Jul-04 16:33S 39°46' E 146°59'8 7.9
2014-Jul-04 15:31S 39°54' E 146°58'51 8.4
2014-Jul-04 09:27S 40°44' E 146°48'8 8.5
2014-Jul-04 08:33S 40°52' E 146°45'8 8.2
2014-Jul-04 07:33S 40°60' E 146°45'8 8.1
2014-Jul-04 06:33S 41°07' E 146°49'2 2.2
2014-Jul-04 05:31S 41°08' E 146°52'0 0.0
2014-Jul-04 04:32S 41°08' E 146°52'0 0.0
2014-Jul-04 03:23S 41°08' E 146°52'0 0.0
2014-Jul-04 02:05S 41°08' E 146°52'0 0.0
2014-Jul-03 23:26S 41°08' E 146°52'0 0.0
2014-Jul-03 22:29S 41°08' E 146°52'0 0.0
2014-Jul-03 21:29S 41°08' E 146°52'0 0.0
2014-Jul-03 20:29S 41°08' E 146°52'0 0.0
2014-Jul-03 19:14S 41°08' E 146°52'0 0.0
2014-Jul-03 18:26S 41°08' E 146°52'0 0.0
2014-Jul-03 16:32S 41°08' E 146°52'0 0.0
2014-Jul-03 15:29S 41°08' E 146°52'0 0.0
2014-Jul-03 14:20S 41°08' E 146°52'0 0.0
2014-Jul-03 13:23S 41°08' E 146°52'0 0.0
2014-Jul-03 12:23S 41°08' E 146°52'0 0.0
2014-Jul-03 11:23S 41°08' E 146°52'0 0.0
2014-Jul-03 10:26S 41°08' E 146°52'0 0.0
2014-Jul-03 09:26S 41°08' E 146°52'0 0.0
2014-Jul-03 07:29S 41°08' E 146°52'0 0.0
2014-Jul-03 06:29S 41°08' E 146°52'0 0.0
2014-Jul-03 05:26S 41°08' E 146°52'0 0.0
2014-Jul-03 04:32S 41°08' E 146°52'0 0.0
2014-Jul-03 03:32S 41°08' E 146°52'0 0.0
2014-Jul-03 02:32S 41°08' E 146°52'0 0.0
2014-Jul-03 01:29S 41°08' E 146°52'0 0.0
2014-Jul-03 00:20S 41°08' E 146°52'0 0.0
2014-Jul-02 23:08S 41°08' E 146°52'0 0.0
2014-Jul-02 22:32S 41°08' E 146°52'0 0.0
2014-Jul-02 21:08S 41°08' E 146°52'0 0.0
2014-Jul-02 19:26S 41°08' E 146°52'0 0.0
2014-Jul-02 18:23S 41°08' E 146°52'0 0.0
2014-Jul-02 17:14S 41°08' E 146°52'0 0.0
2014-Jul-02 15:29S 41°08' E 146°52'0 0.0
2014-Jul-02 14:17S 41°08' E 146°52'0 0.0
2014-Jul-02 13:29S 41°08' E 146°52'0 0.0
2014-Jul-02 12:32S 41°08' E 146°52'0 0.0
2014-Jul-02 11:20S 41°08' E 146°52'0 0.0
2014-Jul-02 10:32S 41°08' E 146°52'0 0.0
2014-Jul-02 09:32S 41°08' E 146°52'0 0.0
2014-Jul-02 08:20S 41°08' E 146°52'0 0.0
2014-Jul-02 07:23S 41°08' E 146°52'0 0.0
2014-Jul-02 06:23S 41°08' E 146°52'0 0.0
2014-Jul-02 05:08S 41°08' E 146°52'0 0.0
2014-Jul-02 04:11S 41°08' E 146°52'0 0.0
2014-Jul-02 03:23S 41°08' E 146°52'0 0.0
2014-Jul-02 02:14S 41°08' E 146°52'0 0.0
2014-Jul-02 01:29S 41°08' E 146°52'0 0.0
2014-Jul-02 00:32S 41°08' E 146°52'0 0.0
2014-Jul-01 23:32S 41°08' E 146°52'0 0.0
2014-Jul-01 22:32S 41°08' E 146°52'0 0.0
2014-Jul-01 21:32S 41°08' E 146°52'0 0.0
2014-Jul-01 20:05S 41°08' E 146°52'0 0.0
2014-Jul-01 19:20S 41°08' E 146°52'0 0.0
2014-Jul-01 18:20S 41°08' E 146°52'0 0.0
2014-Jul-01 17:23S 41°08' E 146°52'0 0.0
2014-Jul-01 16:08S 41°08' E 146°52'0 0.0
2014-Jul-01 14:26S 41°08' E 146°52'0 0.4
2014-Jul-01 13:14S 41°08' E 146°52'0 0.3
2014-Jul-01 12:26S 41°08' E 146°53'0 0.1
2014-Jul-01 11:14S 41°08' E 146°53'0 0.0
2014-Jul-01 10:29S 41°08' E 146°53'0 0.0
2014-Jul-01 09:32S 41°08' E 146°53'0 0.0
2014-Jul-01 07:14S 41°08' E 146°53'0 0.1
2014-Jul-01 06:32S 41°08' E 146°53'0 0.1
2014-Jul-01 05:20S 41°08' E 146°53'0 0.1
2014-Jul-01 04:32S 41°08' E 146°53'0 0.0
2014-Jul-01 03:20S 41°08' E 146°53'0 0.0
2014-Jul-01 02:23S 41°08' E 146°53'0 0.0
2014-Jul-01 01:26S 41°08' E 146°53'0 0.0
2014-Jul-01 00:11S 41°08' E 146°53'0 0.3
2014-Jun-30 23:26S 41°08' E 146°53'0 0.0
2014-Jun-30 22:26S 41°08' E 146°53'0 0.1
2014-Jun-30 21:29S 41°08' E 146°53'0 0.0
2014-Jun-30 20:29S 41°08' E 146°53'0 0.0
2014-Jun-30 19:29S 41°08' E 146°53'0 0.0
2014-Jun-30 18:32S 41°08' E 146°53'0 0.1
2014-Jun-30 17:14S 41°08' E 146°53'0 0.1
2014-Jun-30 15:20S 41°08' E 146°53'0 0.0
2014-Jun-30 14:32S 41°08' E 146°53'0 0.1
2014-Jun-30 13:23S 41°08' E 146°53'0 0.0
2014-Jun-30 12:23S 41°08' E 146°53'0 0.1
2014-Jun-30 10:20S 41°08' E 146°53'0 0.0
2014-Jun-30 09:23S 41°08' E 146°53'0 0.0
2014-Jun-30 08:29S 41°08' E 146°53'0 0.1
2014-Jun-30 05:29S 41°08' E 146°53'0 0.0
2014-Jun-30 04:26S 41°08' E 146°53'0 0.0
2014-Jun-30 03:32S 41°08' E 146°53'0 0.0
2014-Jun-30 02:29S 41°08' E 146°53'4 4.6
2014-Jun-30 01:33S 41°06' E 146°48'7 6.7
2014-Jun-30 00:33S 40°59' E 146°46'0 0.1
2014-Jun-29 23:33S 40°59' E 146°46'0 0.0
2014-Jun-29 21:30S 40°59' E 146°46'0 0.0
2014-Jun-29 20:33S 40°59' E 146°46'0 0.0
2014-Jun-29 19:33S 40°59' E 146°46'0 0.0
2014-Jun-29 18:21S 40°59' E 146°46'0 0.0
2014-Jun-29 17:25S 40°59' E 146°46'0 0.0
2014-Jun-29 16:21S 40°59' E 146°46'0 0.0
2014-Jun-29 15:12S 40°59' E 146°46'0 0.0
2014-Jun-29 14:24S 40°59' E 146°46'0 0.0
2014-Jun-29 13:12S 40°59' E 146°46'0 0.0
2014-Jun-29 12:15S 40°59' E 146°46'0 0.0
2014-Jun-29 11:28S 40°59' E 146°46'0 0.0
2014-Jun-29 10:27S 40°59' E 146°46'0 0.1
2014-Jun-29 09:33S 40°59' E 146°46'0 0.0
2014-Jun-29 07:31S 40°59' E 146°46'0 0.0
2014-Jun-29 06:32S 40°59' E 146°46'0 0.1
2014-Jun-29 05:32S 40°59' E 146°46'0 0.0
2014-Jun-29 04:33S 40°59' E 146°46'0 0.1
2014-Jun-29 03:33S 40°59' E 146°46'0 0.0
2014-Jun-29 02:31S 40°59' E 146°46'0 0.0
2014-Jun-29 01:32S 40°59' E 146°46'0 0.0
2014-Jun-29 00:33S 40°59' E 146°46'0 0.0
2014-Jun-28 23:33S 40°59' E 146°46'0 0.2
2014-Jun-28 22:33S 40°59' E 146°46'5 5.2
2014-Jun-28 21:31S 40°55' E 146°41'7 1.2
2014-Jun-28 15:33S 40°48' E 146°38'3 2.7
2014-Jun-28 14:33S 40°50' E 146°41'2 2.5
2014-Jun-28 13:33S 40°51' E 146°44'2 2.1
2014-Jun-28 12:30S 40°53' E 146°46'2 2.2
2014-Jun-28 11:33S 40°54' E 146°49'2 2.4
2014-Jun-28 10:33S 40°55' E 146°51'2 1.7
2014-Jun-28 09:32S 40°56' E 146°53'2 1.6
2014-Jun-28 08:32S 40°55' E 146°52'6 5.8
2014-Jun-28 07:32S 40°52' E 146°45'3 2.4
2014-Jun-28 06:27S 40°51' E 146°42'1 0.8
2014-Jun-28 05:26S 40°52' E 146°42'1 1.2
2014-Jun-28 04:32S 40°53' E 146°43'1 1.0
2014-Jun-28 03:31S 40°54' E 146°43'2 1.7
2014-Jun-28 02:31S 40°55' E 146°44'1 1.5
2014-Jun-28 01:33S 40°56' E 146°46'  

Dump ship's entire track history